This is the latest recevied weather packets stored in our database for station/object KR4CWL-13. If no packets are shown the sender has not sent any weather packets the latest 10 day(s).
| Time | Temp. | Humidity | Pressure | Rain* | Wind** | Luminosity | Snow |
|---|---|---|---|---|---|---|---|
| 1777105404 | 15° C | 75% | 1001.7 hPa | 0 mm | - | - | - |
| 1777104804 | 15° C | 75% | 1001.7 hPa | 0 mm | - | - | - |
| 1777104204 | 15.56° C | 75% | 1001.7 hPa | 0 mm | - | - | - |
| 1777103604 | 15.56° C | 74% | 1001.4 hPa | 0 mm | - | - | - |
| 1777103004 | 15.56° C | 73% | 1001.4 hPa | 0 mm | - | - | - |
| 1777102404 | 15.56° C | 73% | 1001.4 hPa | 0 mm | - | - | - |
| 1777101804 | 15.56° C | 73% | 1001.4 hPa | 0 mm | - | - | - |
| 1777101204 | 15.56° C | 73% | 1001.4 hPa | 0 mm | - | - | - |
| 1777100604 | 16.11° C | 74% | 1001.4 hPa | 0 mm | - | - | - |
| 1777100004 | 16.11° C | 74% | 1001 hPa | 0 mm | - | - | - |
| 1777099404 | 16.11° C | 75% | 1001 hPa | 0 mm | - | - | - |
| 1777098804 | 17.22° C | 70% | 1001 hPa | 0 mm | - | - | - |
| 1777098204 | 17.78° C | 67% | 1001 hPa | 0 mm | - | - | - |
| 1777097604 | 17.78° C | 67% | 1001 hPa | 0 mm | - | - | - |
| 1777097004 | 17.22° C | 67% | 1001 hPa | 0 mm | - | - | - |
| 1777096404 | 17.78° C | 66% | 1001.4 hPa | 0 mm | - | - | - |
| 1777095804 | 17.22° C | 68% | 1001.4 hPa | 0 mm | - | - | - |
| 1777095204 | 17.22° C | 68% | 1001.7 hPa | 0 mm | - | - | - |
| 1777094604 | 17.22° C | 68% | 1001.7 hPa | 0 mm | - | - | - |
| 1777094003 | 17.22° C | 68% | 1001.7 hPa | 0 mm | - | - | - |
| 1777093404 | 17.22° C | 67% | 1001.7 hPa | 0 mm | - | - | - |
| 1777092803 | 17.22° C | 67% | 1001.7 hPa | 0 mm | - | - | - |
| 1777092203 | 17.22° C | 68% | 1002 hPa | 0 mm | - | - | - |
| 1777091603 | 17.22° C | 71% | 1002 hPa | 0 mm | - | - | - |
| 1777091003 | 17.22° C | 70% | 1002 hPa | 0 mm | - | - | - |
* Rain since midnight (hover to see other rain measurements)
** Current wind speed in m/s (hover to see current wind gust speed)